createdAt,value
2019-02-17T00:00:57.910Z,2.60
2019-02-17T00:04:02.616Z,2.60
2019-02-17T00:07:07.055Z,2.60
2019-02-17T00:10:11.485Z,2.70
2019-02-17T00:13:16.196Z,2.70
2019-02-17T00:16:20.935Z,2.70
2019-02-17T00:19:25.653Z,2.70
2019-02-17T00:22:30.090Z,2.70
2019-02-17T00:25:34.525Z,2.60
2019-02-17T00:28:38.967Z,2.60
2019-02-17T00:31:43.418Z,2.60
2019-02-17T00:34:48.185Z,2.60
2019-02-17T00:37:52.626Z,2.60
2019-02-17T00:40:57.074Z,2.60
2019-02-17T00:44:01.509Z,2.60
2019-02-17T00:47:05.956Z,2.50
2019-02-17T00:50:11.429Z,2.60
2019-02-17T00:53:16.365Z,2.60
2019-02-17T00:56:21.087Z,2.60
2019-02-17T00:59:25.525Z,2.60
2019-02-17T01:02:30.254Z,2.60
2019-02-17T01:05:34.978Z,2.50
2019-02-17T01:08:39.691Z,2.50
2019-02-17T01:11:44.438Z,2.40
2019-02-17T01:14:48.869Z,2.40
2019-02-17T01:17:53.601Z,2.30
2019-02-17T01:20:58.324Z,2.30
2019-02-17T01:24:02.769Z,2.30
2019-02-17T01:27:07.542Z,2.30
2019-02-17T01:30:15.677Z,2.30
2019-02-17T01:33:20.128Z,2.30
2019-02-17T01:36:24.550Z,2.20
2019-02-17T01:39:29.274Z,2.20
2019-02-17T01:42:33.710Z,2.30
2019-02-17T01:45:38.425Z,2.40
2019-02-17T01:48:42.868Z,2.30
2019-02-17T01:51:47.580Z,2.30
2019-02-17T01:54:52.322Z,2.20
2019-02-17T01:57:56.756Z,2.10
2019-02-17T02:01:01.459Z,2.10
2019-02-17T02:04:05.898Z,2.10
2019-02-17T02:07:10.327Z,2.10
2019-02-17T02:10:15.443Z,2.10
2019-02-17T02:13:19.933Z,2.00
2019-02-17T02:16:24.369Z,1.90
2019-02-17T02:19:29.129Z,1.90
2019-02-17T02:22:33.567Z,1.80
2019-02-17T02:25:38.016Z,1.90
2019-02-17T02:28:42.459Z,1.80
2019-02-17T02:31:46.907Z,1.80
2019-02-17T02:34:51.656Z,1.80
2019-02-17T02:37:56.113Z,1.60
2019-02-17T02:41:00.549Z,1.70
2019-02-17T02:44:05.336Z,1.60
2019-02-17T02:47:09.769Z,1.50
2019-02-17T02:50:14.593Z,1.50
2019-02-17T02:53:19.323Z,1.50
2019-02-17T02:56:23.767Z,1.60
2019-02-17T02:59:28.475Z,1.60
2019-02-17T03:02:33.213Z,1.40
2019-02-17T03:05:39.297Z,1.40
2019-02-17T03:08:43.749Z,1.40
2019-02-17T03:11:48.173Z,1.40
2019-02-17T03:14:52.949Z,1.40
2019-02-17T03:17:57.390Z,1.30
2019-02-17T03:21:01.837Z,1.30
2019-02-17T03:24:06.531Z,1.30
2019-02-17T03:27:10.966Z,1.40
2019-02-17T03:30:15.424Z,1.50
2019-02-17T03:33:19.846Z,1.50
2019-02-17T03:36:24.300Z,1.50
2019-02-17T03:39:29.060Z,1.50
2019-02-17T03:42:33.491Z,1.40
2019-02-17T03:45:37.935Z,1.50
2019-02-17T03:48:42.632Z,1.40
2019-02-17T03:51:47.077Z,1.50
2019-02-17T03:54:51.514Z,1.40
2019-02-17T03:57:56.210Z,1.40
2019-02-17T04:01:00.652Z,1.30
2019-02-17T04:04:05.091Z,1.30
2019-02-17T04:07:09.536Z,1.30
2019-02-17T04:10:14.317Z,1.20
2019-02-17T04:13:19.047Z,1.10
2019-02-17T04:16:23.489Z,1.20
2019-02-17T04:19:28.195Z,1.30
2019-02-17T04:22:32.637Z,1.20
2019-02-17T04:25:37.086Z,1.10
2019-02-17T04:28:41.778Z,1.20
2019-02-17T04:31:46.219Z,1.20
2019-02-17T04:34:50.936Z,1.20
2019-02-17T04:37:55.380Z,1.10
2019-02-17T04:40:59.828Z,1.10
2019-02-17T04:44:04.271Z,1.20
2019-02-17T04:47:09.034Z,1.20
2019-02-17T04:50:13.545Z,1.10
2019-02-17T04:53:17.975Z,1.20
2019-02-17T04:56:22.419Z,1.20
2019-02-17T04:59:26.855Z,1.00
2019-02-17T05:02:31.562Z,1.10
2019-02-17T05:05:36.291Z,1.20
2019-02-17T05:08:41.026Z,1.30
2019-02-17T05:11:45.770Z,1.20
2019-02-17T05:14:50.488Z,1.10
2019-02-17T05:17:54.933Z,1.10
2019-02-17T05:20:59.451Z,1.00
2019-02-17T05:24:04.173Z,1.10
2019-02-17T05:27:08.901Z,1.00
2019-02-17T05:30:13.402Z,1.10
2019-02-17T05:33:18.158Z,1.10
2019-02-17T05:36:22.881Z,1.00
2019-02-17T05:39:27.316Z,1.00
2019-02-17T05:42:32.035Z,1.00
2019-02-17T05:45:36.477Z,0.90
2019-02-17T05:48:40.920Z,1.00
2019-02-17T05:51:45.627Z,1.10
2019-02-17T05:54:50.581Z,0.90
2019-02-17T05:57:55.183Z,1.00
2019-02-17T06:01:03.709Z,0.90
2019-02-17T06:04:06.074Z,0.90
2019-02-17T06:07:10.514Z,1.00
2019-02-17T06:10:14.945Z,1.00
2019-02-17T06:13:19.658Z,0.90
2019-02-17T06:16:24.384Z,0.90
2019-02-17T06:19:28.825Z,0.90
2019-02-17T06:22:33.548Z,0.90
2019-02-17T06:25:37.976Z,0.90
2019-02-17T06:28:42.699Z,0.90
2019-02-17T06:31:47.159Z,0.90
2019-02-17T06:34:51.596Z,1.00
2019-02-17T06:37:56.043Z,1.00
2019-02-17T06:41:00.481Z,1.00
2019-02-17T06:44:04.982Z,1.30
2019-02-17T06:47:11.389Z,1.90
2019-02-17T06:50:15.822Z,2.30
2019-02-17T06:53:20.539Z,3.10
2019-02-17T06:56:41.763Z,3.70
2019-02-17T06:59:46.484Z,4.00
2019-02-17T07:02:50.941Z,3.90
2019-02-17T07:05:57.281Z,3.50
2019-02-17T07:09:01.800Z,3.30
2019-02-17T07:12:06.245Z,3.00
2019-02-17T07:15:10.754Z,2.70
2019-02-17T07:18:15.510Z,2.60
2019-02-17T07:21:20.224Z,2.60
2019-02-17T07:24:25.003Z,2.70
2019-02-17T07:27:29.525Z,2.80
2019-02-17T07:30:33.977Z,2.80
2019-02-17T07:33:38.734Z,2.80
2019-02-17T07:36:43.466Z,2.80
2019-02-17T07:39:47.934Z,2.80
2019-02-17T07:42:52.828Z,2.90
2019-02-17T07:45:57.276Z,3.10
2019-02-17T07:49:01.981Z,3.20
2019-02-17T07:52:06.727Z,3.30
2019-02-17T07:55:12.078Z,3.40
2019-02-17T07:58:16.524Z,3.50
2019-02-17T08:01:20.968Z,3.50
2019-02-17T08:04:25.416Z,3.60
2019-02-17T08:07:29.861Z,3.70
2019-02-17T08:10:34.799Z,3.80
2019-02-17T08:13:39.224Z,4.00
2019-02-17T08:16:43.673Z,4.10
2019-02-17T08:19:48.359Z,4.20
2019-02-17T08:22:52.801Z,4.30
2019-02-17T08:25:57.528Z,4.40
2019-02-17T08:29:01.966Z,4.50
2019-02-17T08:32:06.406Z,4.70
2019-02-17T08:35:11.519Z,4.80
2019-02-17T08:38:16.233Z,4.80
2019-02-17T08:41:20.680Z,4.90
2019-02-17T08:44:25.410Z,4.90
2019-02-17T08:47:29.830Z,5.00
2019-02-17T08:50:34.555Z,5.10
2019-02-17T08:53:38.989Z,5.30
2019-02-17T08:56:43.700Z,5.40
2019-02-17T08:59:48.148Z,5.60
2019-02-17T09:02:52.857Z,5.80
2019-02-17T09:05:57.586Z,5.80
2019-02-17T09:09:02.320Z,5.90
2019-02-17T09:12:06.757Z,5.90
2019-02-17T09:15:13.086Z,6.10
2019-02-17T09:18:17.519Z,6.20
2019-02-17T09:21:22.259Z,6.30
2019-02-17T09:24:26.691Z,6.60
2019-02-17T09:27:31.131Z,6.70
2019-02-17T09:30:35.606Z,6.90
2019-02-17T09:33:40.037Z,7.00
2019-02-17T09:36:44.788Z,7.20
2019-02-17T09:39:49.222Z,7.40
2019-02-17T09:42:53.720Z,7.50
2019-02-17T09:45:58.478Z,7.60
2019-02-17T09:49:03.205Z,7.80
2019-02-17T09:52:07.927Z,8.00
2019-02-17T09:55:12.654Z,9.40
2019-02-17T09:58:17.089Z,11.70
2019-02-17T10:01:21.538Z,13.70
2019-02-17T10:04:25.988Z,15.30
2019-02-17T10:07:30.512Z,16.00
2019-02-17T10:10:35.291Z,17.00
2019-02-17T10:13:39.746Z,17.50
2019-02-17T10:16:44.652Z,17.50
2019-02-17T10:19:49.092Z,17.90
2019-02-17T10:22:53.546Z,18.00
2019-02-17T10:25:57.996Z,17.60
2019-02-17T10:29:02.449Z,17.50
2019-02-17T10:32:06.900Z,17.70
2019-02-17T10:35:11.349Z,17.60
2019-02-17T10:38:16.131Z,17.50
2019-02-17T10:41:20.871Z,17.40
2019-02-17T10:44:25.317Z,17.50
2019-02-17T10:47:30.222Z,17.60
2019-02-17T10:50:34.954Z,17.50
2019-02-17T10:53:39.687Z,17.40
2019-02-17T10:56:44.413Z,17.10
2019-02-17T10:59:48.855Z,17.00
2019-02-17T11:02:53.671Z,17.00
2019-02-17T11:05:58.123Z,16.70
2019-02-17T11:09:03.048Z,16.50
2019-02-17T11:12:07.497Z,16.30
2019-02-17T11:15:20.570Z,16.30
2019-02-17T11:18:25.018Z,16.40
2019-02-17T11:21:29.468Z,16.80
2019-02-17T11:24:33.950Z,17.00
2019-02-17T11:27:38.398Z,17.20
2019-02-17T11:30:42.835Z,17.40
2019-02-17T11:33:47.628Z,17.60
2019-02-17T11:36:52.370Z,17.10
2019-02-17T11:39:56.821Z,16.90
2019-02-17T11:43:01.616Z,17.10
2019-02-17T11:46:06.060Z,17.20
2019-02-17T11:49:10.524Z,17.30
2019-02-17T11:52:15.429Z,17.40
2019-02-17T11:55:19.854Z,17.30
2019-02-17T11:58:24.308Z,17.50
2019-02-17T12:01:29.084Z,17.90
2019-02-17T12:04:33.537Z,18.30
2019-02-17T12:07:38.241Z,18.60
2019-02-17T12:10:42.680Z,18.80
2019-02-17T12:13:47.392Z,19.00
2019-02-17T12:16:52.123Z,18.80
2019-02-17T12:19:58.224Z,19.10
2019-02-17T12:23:06.734Z,19.40
2019-02-17T12:26:13.183Z,19.70
2019-02-17T12:29:19.538Z,19.60
2019-02-17T12:32:25.623Z,19.80
2019-02-17T12:35:30.332Z,20.00
2019-02-17T12:38:34.794Z,20.30
2019-02-17T12:41:39.232Z,20.50
2019-02-17T12:44:43.686Z,20.70
2019-02-17T12:47:57.462Z,20.60
2019-02-17T12:50:54.910Z,20.70
2019-02-17T12:53:59.360Z,21.10
2019-02-17T12:57:03.806Z,21.10
2019-02-17T13:00:15.734Z,21.00
2019-02-17T13:03:28.229Z,20.80
2019-02-17T13:06:26.783Z,20.60
2019-02-17T13:09:31.590Z,20.50
2019-02-17T13:12:36.320Z,20.40
2019-02-17T13:15:40.770Z,20.20
2019-02-17T13:18:45.229Z,20.00
2019-02-17T13:21:49.665Z,20.10
2019-02-17T13:24:54.421Z,20.30
2019-02-17T13:27:59.152Z,21.10
2019-02-17T13:31:03.603Z,22.40
2019-02-17T13:34:08.442Z,23.90
2019-02-17T13:37:12.855Z,24.70
2019-02-17T13:40:17.308Z,25.30
2019-02-17T13:43:21.746Z,25.80
2019-02-17T13:46:26.195Z,26.20
2019-02-17T13:49:30.928Z,26.60
2019-02-17T13:52:35.667Z,25.70
2019-02-17T13:55:40.186Z,25.00
2019-02-17T13:58:44.631Z,24.80
2019-02-17T14:01:49.083Z,24.50
2019-02-17T14:04:53.611Z,24.20
2019-02-17T14:07:58.302Z,23.60
2019-02-17T14:11:02.740Z,23.30
2019-02-17T14:14:07.201Z,23.30
2019-02-17T14:17:11.975Z,23.00
2019-02-17T14:20:16.432Z,23.30
2019-02-17T14:23:21.127Z,23.30
2019-02-17T14:26:25.668Z,23.30
2019-02-17T14:29:32.068Z,23.00
2019-02-17T14:32:36.441Z,22.70
2019-02-17T14:35:40.896Z,22.50
2019-02-17T14:38:45.351Z,22.50
2019-02-17T14:41:49.797Z,22.50
2019-02-17T14:44:54.251Z,22.00
2019-02-17T14:47:58.975Z,21.20
2019-02-17T14:51:03.712Z,20.80
2019-02-17T14:54:08.184Z,20.30
2019-02-17T14:57:12.961Z,19.60
2019-02-17T15:00:18.050Z,19.00
2019-02-17T15:03:22.501Z,18.60
2019-02-17T15:06:27.318Z,18.40
2019-02-17T15:09:34.755Z,18.20
2019-02-17T15:12:39.476Z,18.00
2019-02-17T15:15:44.217Z,17.90
2019-02-17T15:18:48.951Z,17.70
2019-02-17T15:21:53.676Z,17.60
2019-02-17T15:24:58.412Z,17.50
2019-02-17T15:28:02.857Z,17.30
2019-02-17T15:31:07.305Z,17.20
2019-02-17T15:34:18.441Z,17.00
2019-02-17T15:37:18.257Z,16.80
2019-02-17T15:40:23.538Z,16.70
2019-02-17T15:43:28.324Z,16.60
2019-02-17T15:46:32.772Z,16.50
2019-02-17T15:49:37.233Z,16.40
2019-02-17T15:52:42.005Z,16.30
2019-02-17T15:55:46.733Z,16.20
2019-02-17T15:58:51.176Z,16.10
2019-02-17T16:01:55.895Z,16.00
2019-02-17T16:05:00.342Z,15.80
2019-02-17T16:08:04.798Z,15.60
2019-02-17T16:11:09.573Z,15.50
2019-02-17T16:14:14.305Z,15.50
2019-02-17T16:17:18.753Z,15.30
2019-02-17T16:20:23.203Z,15.00
2019-02-17T16:23:27.979Z,14.80
2019-02-17T16:26:32.836Z,14.60
2019-02-17T16:29:37.541Z,14.30
2019-02-17T16:32:41.985Z,14.10
2019-02-17T16:35:46.441Z,13.80
2019-02-17T16:38:50.872Z,13.70
2019-02-17T16:41:55.321Z,13.40
2019-02-17T16:45:00.800Z,13.30
2019-02-17T16:48:05.933Z,13.10
2019-02-17T16:51:10.390Z,12.90
2019-02-17T16:54:15.190Z,12.70
2019-02-17T16:57:19.917Z,12.50
2019-02-17T17:00:25.674Z,12.30
2019-02-17T17:03:30.186Z,12.20
2019-02-17T17:06:34.943Z,12.00
2019-02-17T17:09:39.388Z,11.90
2019-02-17T17:12:43.903Z,11.70
2019-02-17T17:15:48.349Z,11.60
2019-02-17T17:18:53.130Z,11.40
2019-02-17T17:21:57.575Z,11.20
2019-02-17T17:25:02.020Z,11.20
2019-02-17T17:28:06.479Z,11.00
2019-02-17T17:31:10.930Z,10.80
2019-02-17T17:34:15.366Z,10.70
2019-02-17T17:37:19.891Z,10.60
2019-02-17T17:40:24.609Z,10.40
2019-02-17T17:43:29.359Z,10.20
2019-02-17T17:46:33.828Z,10.00
2019-02-17T17:49:38.463Z,9.90
2019-02-17T17:52:42.902Z,9.70
2019-02-17T17:55:47.330Z,9.60
2019-02-17T17:58:51.780Z,9.50
2019-02-17T18:01:56.227Z,9.50
2019-02-17T18:05:08.678Z,9.50
2019-02-17T18:08:07.082Z,9.40
2019-02-17T18:11:11.516Z,9.30
2019-02-17T18:14:16.238Z,9.20
2019-02-17T18:17:20.982Z,9.00
2019-02-17T18:20:25.697Z,8.90
2019-02-17T18:23:30.147Z,8.80
2019-02-17T18:26:34.749Z,8.70
2019-02-17T18:29:39.196Z,8.50
2019-02-17T18:32:43.662Z,8.40
2019-02-17T18:35:48.096Z,8.30
2019-02-17T18:38:52.868Z,8.20
2019-02-17T18:41:57.585Z,8.10
2019-02-17T18:45:02.031Z,7.90
2019-02-17T18:48:06.480Z,7.90
2019-02-17T18:51:10.908Z,7.70
2019-02-17T18:54:15.361Z,7.60
2019-02-17T18:57:19.807Z,7.50
2019-02-17T19:00:26.560Z,7.40
2019-02-17T19:03:31.318Z,7.40
2019-02-17T19:06:36.070Z,7.30
2019-02-17T19:09:40.777Z,7.20
2019-02-17T19:12:45.237Z,7.00
2019-02-17T19:15:49.670Z,6.90
2019-02-17T19:18:54.141Z,6.80
2019-02-17T19:21:58.986Z,6.80
2019-02-17T19:25:03.698Z,6.70
2019-02-17T19:28:08.225Z,6.70
2019-02-17T19:31:12.975Z,6.60
2019-02-17T19:34:17.701Z,6.60
2019-02-17T19:37:22.442Z,6.50
2019-02-17T19:40:27.159Z,6.50
2019-02-17T19:43:31.673Z,6.40
2019-02-17T19:46:36.421Z,6.40
2019-02-17T19:49:41.462Z,6.40
2019-02-17T19:52:51.827Z,6.40
2019-02-17T19:55:59.321Z,6.30
2019-02-17T19:59:05.502Z,6.40
2019-02-17T20:02:10.037Z,6.50
2019-02-17T20:05:19.087Z,6.40
2019-02-17T20:08:24.506Z,6.30
2019-02-17T20:11:29.307Z,6.30
2019-02-17T20:14:33.941Z,6.20
2019-02-17T20:17:38.382Z,6.10
2019-02-17T20:20:42.841Z,6.10
2019-02-17T20:23:47.302Z,6.00
2019-02-17T20:26:51.748Z,5.90
2019-02-17T20:29:56.196Z,5.80
2019-02-17T20:33:00.896Z,5.70
2019-02-17T20:36:05.336Z,5.70
2019-02-17T20:39:10.060Z,5.60
2019-02-17T20:42:14.503Z,5.50
2019-02-17T20:45:19.313Z,5.50
2019-02-17T20:48:23.750Z,5.40
2019-02-17T20:51:28.188Z,5.30
2019-02-17T20:54:32.644Z,5.40
2019-02-17T20:57:37.413Z,5.30
2019-02-17T21:00:41.859Z,5.30
2019-02-17T21:03:46.569Z,5.20
2019-02-17T21:06:51.012Z,5.20
2019-02-17T21:09:55.446Z,5.20
2019-02-17T21:12:59.954Z,5.10
2019-02-17T21:16:06.210Z,5.10
2019-02-17T21:19:10.954Z,5.10
2019-02-17T21:22:15.989Z,5.00
2019-02-17T21:25:21.485Z,5.00
2019-02-17T21:28:25.934Z,4.90
2019-02-17T21:31:30.502Z,4.90
2019-02-17T21:34:35.044Z,4.80
2019-02-17T21:37:40.035Z,4.80
2019-02-17T21:40:44.770Z,4.70
2019-02-17T21:43:49.379Z,4.80
2019-02-17T21:46:53.881Z,4.90
2019-02-17T21:49:58.672Z,4.90
2019-02-17T21:53:03.202Z,4.90
2019-02-17T21:56:08.064Z,4.70
2019-02-17T21:59:13.127Z,4.50
2019-02-17T22:02:17.755Z,4.50
2019-02-17T22:05:34.277Z,4.40
2019-02-17T22:08:34.100Z,4.40
2019-02-17T22:11:39.658Z,4.40
2019-02-17T22:14:44.379Z,4.30
2019-02-17T22:17:49.227Z,4.30
2019-02-17T22:20:53.664Z,4.20
2019-02-17T22:23:58.215Z,4.20
2019-02-17T22:27:02.601Z,4.20
2019-02-17T22:30:11.813Z,4.10
2019-02-17T22:33:16.226Z,4.10
2019-02-17T22:36:21.478Z,4.10
2019-02-17T22:39:25.913Z,3.90
2019-02-17T22:42:30.649Z,3.90
2019-02-17T22:45:35.098Z,3.80
2019-02-17T22:48:39.532Z,3.70
2019-02-17T22:51:43.975Z,3.60
2019-02-17T22:54:48.449Z,3.60
2019-02-17T22:57:52.892Z,3.50
2019-02-17T23:01:01.215Z,3.60
2019-02-17T23:04:06.051Z,3.50
2019-02-17T23:07:10.452Z,3.50
2019-02-17T23:10:14.959Z,3.50
2019-02-17T23:13:19.794Z,3.50
2019-02-17T23:16:24.229Z,3.50
2019-02-17T23:19:28.953Z,3.50
2019-02-17T23:22:33.397Z,3.60
2019-02-17T23:25:37.890Z,3.60
2019-02-17T23:28:42.339Z,3.60
2019-02-17T23:31:47.059Z,3.60
2019-02-17T23:34:51.503Z,3.60
2019-02-17T23:37:55.942Z,3.50
2019-02-17T23:41:00.372Z,3.40
2019-02-17T23:44:05.161Z,3.40
2019-02-17T23:47:09.608Z,3.40
2019-02-17T23:50:15.266Z,3.40
2019-02-17T23:53:19.962Z,3.40
2019-02-17T23:56:24.690Z,3.40
2019-02-17T23:59:29.138Z,3.40
